sensor_id;sensor_type;location;lat;lon;timestamp;pressure;altitude;pressure_sealevel;temperature;humidity
40838;BME280;29632;49.168;9.848;2022-09-13T00:00:43;96475.53;;;21.16;42.71
40838;BME280;29632;49.168;9.848;2022-09-13T00:03:10;96472.28;;;21.14;42.85
40838;BME280;29632;49.168;9.848;2022-09-13T00:05:37;96461.31;;;21.10;42.75
40838;BME280;29632;49.168;9.848;2022-09-13T00:08:04;96460.94;;;21.07;42.84
40838;BME280;29632;49.168;9.848;2022-09-13T00:10:36;96453.22;;;21.05;42.88
40838;BME280;29632;49.168;9.848;2022-09-13T00:13:04;96456.91;;;21.04;42.74
40838;BME280;29632;49.168;9.848;2022-09-13T00:15:30;96456.53;;;21.01;42.76
40838;BME280;29632;49.168;9.848;2022-09-13T00:17:57;96442.47;;;21.00;42.85
40838;BME280;29632;49.168;9.848;2022-09-13T00:20:24;96438.81;;;21.01;42.90
40838;BME280;29632;49.168;9.848;2022-09-13T00:22:50;96431.31;;;20.98;42.83
40838;BME280;29632;49.168;9.848;2022-09-13T00:25:16;96420.13;;;20.96;42.86
40838;BME280;29632;49.168;9.848;2022-09-13T00:27:42;96431.13;;;20.93;42.78
40838;BME280;29632;49.168;9.848;2022-09-13T00:30:11;96433.19;;;20.91;42.82
40838;BME280;29632;49.168;9.848;2022-09-13T00:32:38;96428.34;;;20.88;43.08
40838;BME280;29632;49.168;9.848;2022-09-13T00:35:05;96419.22;;;20.84;42.71
40838;BME280;29632;49.168;9.848;2022-09-13T00:37:31;96418.84;;;20.80;43.06
40838;BME280;29632;49.168;9.848;2022-09-13T00:40:01;96419.28;;;20.77;43.02
40838;BME280;29632;49.168;9.848;2022-09-13T00:42:30;96423.19;;;20.74;43.10
40838;BME280;29632;49.168;9.848;2022-09-13T00:47:50;96428.75;;;20.66;43.36
40838;BME280;29632;49.168;9.848;2022-09-13T00:53:14;96434.44;;;20.63;43.56
40838;BME280;29632;49.168;9.848;2022-09-13T00:56:16;96438.94;;;20.63;43.43
40838;BME280;29632;49.168;9.848;2022-09-13T00:58:58;96428.53;;;20.61;43.35
40838;BME280;29632;49.168;9.848;2022-09-13T01:01:36;96433.03;;;20.61;43.44
40838;BME280;29632;49.168;9.848;2022-09-13T01:04:04;96426.09;;;20.60;43.43
40838;BME280;29632;49.168;9.848;2022-09-13T01:06:33;96422.28;;;20.55;43.65
40838;BME280;29632;49.168;9.848;2022-09-13T01:09:01;96423.75;;;20.51;43.84
40838;BME280;29632;49.168;9.848;2022-09-13T01:14:07;96422.34;;;20.49;43.68
40838;BME280;29632;49.168;9.848;2022-09-13T01:16:33;96419.47;;;20.50;43.69
40838;BME280;29632;49.168;9.848;2022-09-13T01:18:59;96427.19;;;20.52;43.65
40838;BME280;29632;49.168;9.848;2022-09-13T01:24:52;96415.41;;;20.48;43.83
40838;BME280;29632;49.168;9.848;2022-09-13T01:30:26;96419.53;;;20.44;44.06
40838;BME280;29632;49.168;9.848;2022-09-13T01:39:02;96425.84;;;20.43;43.92
40838;BME280;29632;49.168;9.848;2022-09-13T01:42:21;96415.91;;;20.38;44.16
40838;BME280;29632;49.168;9.848;2022-09-13T01:48:00;96422.66;;;20.34;44.00
40838;BME280;29632;49.168;9.848;2022-09-13T01:50:56;96433.06;;;20.29;43.93
40838;BME280;29632;49.168;9.848;2022-09-13T01:53:54;96417.19;;;20.29;44.14
40838;BME280;29632;49.168;9.848;2022-09-13T01:56:28;96425.72;;;20.31;44.03
40838;BME280;29632;49.168;9.848;2022-09-13T01:59:02;96413.72;;;20.28;44.16
40838;BME280;29632;49.168;9.848;2022-09-13T02:01:46;96413.13;;;20.26;43.93
40838;BME280;29632;49.168;9.848;2022-09-13T02:04:24;96416.41;;;20.22;44.24
40838;BME280;29632;49.168;9.848;2022-09-13T02:07:03;96407.09;;;20.19;44.24
40838;BME280;29632;49.168;9.848;2022-09-13T02:09:36;96406.28;;;20.18;43.98
40838;BME280;29632;49.168;9.848;2022-09-13T02:12:19;96403.06;;;20.16;44.41
40838;BME280;29632;49.168;9.848;2022-09-13T02:15:06;96393.50;;;20.15;44.21
40838;BME280;29632;49.168;9.848;2022-09-13T02:17:38;96384.75;;;20.15;43.95
40838;BME280;29632;49.168;9.848;2022-09-13T02:20:39;96386.41;;;20.09;44.09
40838;BME280;29632;49.168;9.848;2022-09-13T02:23:17;96398.44;;;20.05;44.28
40838;BME280;29632;49.168;9.848;2022-09-13T02:25:45;96395.19;;;20.03;44.14
40838;BME280;29632;49.168;9.848;2022-09-13T02:28:16;96404.72;;;20.04;44.29
40838;BME280;29632;49.168;9.848;2022-09-13T02:30:50;96397.63;;;20.05;44.31
40838;BME280;29632;49.168;9.848;2022-09-13T02:33:25;96390.50;;;20.05;44.17
40838;BME280;29632;49.168;9.848;2022-09-13T02:38:36;96395.38;;;20.08;44.17
40838;BME280;29632;49.168;9.848;2022-09-13T02:50:02;96395.03;;;19.98;44.47
40838;BME280;29632;49.168;9.848;2022-09-13T02:58:45;96398.28;;;19.93;44.62
40838;BME280;29632;49.168;9.848;2022-09-13T03:01:13;96405.00;;;19.96;44.39
40838;BME280;29632;49.168;9.848;2022-09-13T03:03:39;96400.72;;;19.95;44.45
40838;BME280;29632;49.168;9.848;2022-09-13T03:06:06;96400.72;;;19.95;44.46
40838;BME280;29632;49.168;9.848;2022-09-13T03:08:32;96400.13;;;19.93;44.62
40838;BME280;29632;49.168;9.848;2022-09-13T03:15:06;96385.38;;;19.78;44.49
40838;BME280;29632;49.168;9.848;2022-09-13T03:20:46;96377.47;;;19.72;44.60
40838;BME280;29632;49.168;9.848;2022-09-13T03:23:58;96385.59;;;19.70;44.75
40838;BME280;29632;49.168;9.848;2022-09-13T03:27:10;96379.09;;;19.73;44.90
40838;BME280;29632;49.168;9.848;2022-09-13T03:30:01;96385.16;;;19.73;44.90
40838;BME280;29632;49.168;9.848;2022-09-13T03:38:38;96385.19;;;19.80;44.70
40838;BME280;29632;49.168;9.848;2022-09-13T03:41:12;96390.84;;;19.84;44.76
40838;BME280;29632;49.168;9.848;2022-09-13T03:43:56;96394.06;;;19.86;44.87
40838;BME280;29632;49.168;9.848;2022-09-13T03:46:40;96395.69;;;19.87;44.88
40838;BME280;29632;49.168;9.848;2022-09-13T03:49:15;96396.72;;;19.86;44.92
40838;BME280;29632;49.168;9.848;2022-09-13T03:51:44;96386.16;;;19.86;44.77
40838;BME280;29632;49.168;9.848;2022-09-13T03:54:29;96381.69;;;19.79;44.97
40838;BME280;29632;49.168;9.848;2022-09-13T03:59:37;96357.13;;;19.79;44.81
40838;BME280;29632;49.168;9.848;2022-09-13T04:02:05;96384.16;;;19.74;45.02
40838;BME280;29632;49.168;9.848;2022-09-13T04:04:33;96404.88;;;19.71;44.98
40838;BME280;29632;49.168;9.848;2022-09-13T04:06:59;96408.16;;;19.73;44.96
40838;BME280;29632;49.168;9.848;2022-09-13T04:09:32;96396.75;;;19.72;45.25
40838;BME280;29632;49.168;9.848;2022-09-13T04:11:58;96402.66;;;19.74;45.05
40838;BME280;29632;49.168;9.848;2022-09-13T04:14:23;96386.19;;;19.72;45.08
40838;BME280;29632;49.168;9.848;2022-09-13T04:16:56;96381.94;;;19.71;45.06
40838;BME280;29632;49.168;9.848;2022-09-13T04:19:23;96381.31;;;19.69;45.13
40838;BME280;29632;49.168;9.848;2022-09-13T04:21:51;96379.13;;;19.66;45.06
40838;BME280;29632;49.168;9.848;2022-09-13T04:24:18;96379.13;;;19.66;45.21
40838;BME280;29632;49.168;9.848;2022-09-13T04:26:49;96370.16;;;19.67;45.20
40838;BME280;29632;49.168;9.848;2022-09-13T04:29:23;96371.78;;;19.68;45.10
40838;BME280;29632;49.168;9.848;2022-09-13T04:31:51;96371.56;;;19.70;45.29
40838;BME280;29632;49.168;9.848;2022-09-13T04:34:17;96364.25;;;19.72;45.18
40838;BME280;29632;49.168;9.848;2022-09-13T04:36:44;96363.03;;;19.74;45.18
40838;BME280;29632;49.168;9.848;2022-09-13T04:39:11;96376.25;;;19.74;45.23
40838;BME280;29632;49.168;9.848;2022-09-13T04:41:40;96371.78;;;19.75;45.21
40838;BME280;29632;49.168;9.848;2022-09-13T04:44:06;96361.41;;;19.73;45.06
40838;BME280;29632;49.168;9.848;2022-09-13T04:46:31;96379.09;;;19.73;45.36
40838;BME280;29632;49.168;9.848;2022-09-13T04:48:57;96376.25;;;19.74;45.24
40838;BME280;29632;49.168;9.848;2022-09-13T04:51:23;96378.47;;;19.77;45.40
40838;BME280;29632;49.168;9.848;2022-09-13T04:53:54;96381.09;;;19.77;45.32
40838;BME280;29632;49.168;9.848;2022-09-13T04:56:21;96373.97;;;19.78;45.44
40838;BME280;29632;49.168;9.848;2022-09-13T04:58:49;96377.88;;;19.75;45.48
40838;BME280;29632;49.168;9.848;2022-09-13T05:01:16;96383.75;;;19.71;45.42
40838;BME280;29632;49.168;9.848;2022-09-13T05:03:42;96387.00;;;19.73;45.57
40838;BME280;29632;49.168;9.848;2022-09-13T05:06:13;96387.00;;;19.73;45.38
40838;BME280;29632;49.168;9.848;2022-09-13T05:08:40;96385.78;;;19.75;45.61
40838;BME280;29632;49.168;9.848;2022-09-13T05:11:06;96390.06;;;19.76;45.53
40838;BME280;29632;49.168;9.848;2022-09-13T05:13:32;96393.31;;;19.78;45.61
40838;BME280;29632;49.168;9.848;2022-09-13T05:16:01;96390.25;;;19.82;45.47
40838;BME280;29632;49.168;9.848;2022-09-13T05:18:33;96385.56;;;19.84;45.46
40838;BME280;29632;49.168;9.848;2022-09-13T05:21:01;96393.03;;;19.87;45.45
40838;BME280;29632;49.168;9.848;2022-09-13T05:23:28;96392.84;;;19.88;45.84
40838;BME280;29632;49.168;9.848;2022-09-13T05:26:00;96389.97;;;19.90;45.59
40838;BME280;29632;49.168;9.848;2022-09-13T05:28:29;96398.88;;;19.95;45.48
40838;BME280;29632;49.168;9.848;2022-09-13T05:33:31;96412.66;;;20.04;45.68
40838;BME280;29632;49.168;9.848;2022-09-13T05:35:57;96412.81;;;20.09;45.50
40838;BME280;29632;49.168;9.848;2022-09-13T05:38:23;96413.44;;;20.11;45.80
40838;BME280;29632;49.168;9.848;2022-09-13T05:40:55;96405.53;;;20.11;45.76
40838;BME280;29632;49.168;9.848;2022-09-13T05:43:22;96411.41;;;20.13;45.51
40838;BME280;29632;49.168;9.848;2022-09-13T05:45:48;96406.72;;;20.15;45.81
40838;BME280;29632;49.168;9.848;2022-09-13T05:48:14;96407.28;;;20.17;45.87
40838;BME280;29632;49.168;9.848;2022-09-13T05:50:40;96412.97;;;20.21;46.12
40838;BME280;29632;49.168;9.848;2022-09-13T05:53:06;96405.03;;;20.21;45.84
40838;BME280;29632;49.168;9.848;2022-09-13T05:55:32;96406.47;;;20.24;45.94
40838;BME280;29632;49.168;9.848;2022-09-13T05:58:00;96416.38;;;20.28;46.14
40838;BME280;29632;49.168;9.848;2022-09-13T06:00:27;96418.00;;;20.29;46.21
40838;BME280;29632;49.168;9.848;2022-09-13T06:02:54;96422.66;;;20.34;46.03
40838;BME280;29632;49.168;9.848;2022-09-13T06:05:20;96425.31;;;20.34;46.31
40838;BME280;29632;49.168;9.848;2022-09-13T06:07:46;96431.41;;;20.34;46.28
40838;BME280;29632;49.168;9.848;2022-09-13T06:10:11;96427.72;;;20.35;46.35
40838;BME280;29632;49.168;9.848;2022-09-13T06:12:37;96429.72;;;20.40;46.54
40838;BME280;29632;49.168;9.848;2022-09-13T06:15:03;96435.19;;;20.45;46.54
40838;BME280;29632;49.168;9.848;2022-09-13T06:17:29;96427.84;;;20.47;46.35
40838;BME280;29632;49.168;9.848;2022-09-13T06:19:55;96422.91;;;20.51;46.50
40838;BME280;29632;49.168;9.848;2022-09-13T06:22:21;96438.75;;;20.58;46.25
40838;BME280;29632;49.168;9.848;2022-09-13T06:24:47;96427.56;;;20.62;46.20
40838;BME280;29632;49.168;9.848;2022-09-13T06:27:13;96429.91;;;20.70;46.46
40838;BME280;29632;49.168;9.848;2022-09-13T06:29:39;96425.63;;;20.76;46.46
40838;BME280;29632;49.168;9.848;2022-09-13T06:32:05;96424.94;;;20.81;46.44
40838;BME280;29632;49.168;9.848;2022-09-13T06:34:30;96425.69;;;20.88;46.43
40838;BME280;29632;49.168;9.848;2022-09-13T06:36:56;96424.03;;;20.93;46.26
40838;BME280;29632;49.168;9.848;2022-09-13T06:39:22;96417.84;;;21.00;46.47
40838;BME280;29632;49.168;9.848;2022-09-13T06:41:48;96422.50;;;21.04;46.45
40838;BME280;29632;49.168;9.848;2022-09-13T06:44:13;96417.56;;;21.08;46.43
40838;BME280;29632;49.168;9.848;2022-09-13T06:46:39;96421.41;;;21.12;46.37
40838;BME280;29632;49.168;9.848;2022-09-13T06:49:06;96412.00;;;21.16;46.44
40838;BME280;29632;49.168;9.848;2022-09-13T06:51:34;96405.22;;;21.20;46.34
40838;BME280;29632;49.168;9.848;2022-09-13T06:54:01;96406.97;;;21.26;46.19
40838;BME280;29632;49.168;9.848;2022-09-13T06:56:34;96407.97;;;21.32;46.32
40838;BME280;29632;49.168;9.848;2022-09-13T06:59:03;96415.00;;;21.38;46.27
40838;BME280;29632;49.168;9.848;2022-09-13T07:01:36;96409.63;;;21.45;46.13
40838;BME280;29632;49.168;9.848;2022-09-13T07:04:11;96410.59;;;21.50;46.14
40838;BME280;29632;49.168;9.848;2022-09-13T07:06:41;96408.47;;;21.59;46.07
40838;BME280;29632;49.168;9.848;2022-09-13T07:09:12;96409.19;;;21.66;46.11
40838;BME280;29632;49.168;9.848;2022-09-13T07:11:40;96409.91;;;21.74;45.94
40838;BME280;29632;49.168;9.848;2022-09-13T07:14:06;96401.66;;;21.82;45.85
40838;BME280;29632;49.168;9.848;2022-09-13T07:16:36;96406.66;;;21.90;45.58
40838;BME280;29632;49.168;9.848;2022-09-13T07:19:06;96396.75;;;21.97;45.40
40838;BME280;29632;49.168;9.848;2022-09-13T07:21:34;96395.41;;;22.06;45.38
40838;BME280;29632;49.168;9.848;2022-09-13T07:24:00;96408.56;;;22.13;45.16
40838;BME280;29632;49.168;9.848;2022-09-13T07:26:26;96401.53;;;22.19;45.01
40838;BME280;29632;49.168;9.848;2022-09-13T07:28:57;96396.38;;;22.24;44.55
40838;BME280;29632;49.168;9.848;2022-09-13T07:31:26;96400.00;;;22.30;44.59
40838;BME280;29632;49.168;9.848;2022-09-13T07:33:59;96406.38;;;22.40;44.64
40838;BME280;29632;49.168;9.848;2022-09-13T07:36:27;96398.66;;;22.51;44.62
40838;BME280;29632;49.168;9.848;2022-09-13T07:38:53;96391.97;;;22.60;44.50
40838;BME280;29632;49.168;9.848;2022-09-13T07:41:21;96392.22;;;22.70;44.39
40838;BME280;29632;49.168;9.848;2022-09-13T07:43:48;96396.94;;;22.80;44.29
40838;BME280;29632;49.168;9.848;2022-09-13T07:46:17;96391.28;;;22.88;44.44
40838;BME280;29632;49.168;9.848;2022-09-13T07:48:45;96393.38;;;22.98;44.33
40838;BME280;29632;49.168;9.848;2022-09-13T07:51:19;96393.03;;;23.06;44.02
40838;BME280;29632;49.168;9.848;2022-09-13T07:53:46;96399.63;;;23.15;43.88
40838;BME280;29632;49.168;9.848;2022-09-13T07:56:17;96401.09;;;23.23;43.56
40838;BME280;29632;49.168;9.848;2022-09-13T07:58:47;96405.72;;;23.28;43.31
40838;BME280;29632;49.168;9.848;2022-09-13T08:01:24;96405.00;;;23.32;43.43
40838;BME280;29632;49.168;9.848;2022-09-13T08:04:00;96400.63;;;23.38;43.74
40838;BME280;29632;49.168;9.848;2022-09-13T08:06:28;96403.13;;;23.45;43.59
40838;BME280;29632;49.168;9.848;2022-09-13T08:08:55;96407.75;;;23.49;43.49
40838;BME280;29632;49.168;9.848;2022-09-13T08:13:52;96408.94;;;23.70;43.20
40838;BME280;29632;49.168;9.848;2022-09-13T08:16:21;96411.25;;;23.79;42.90
40838;BME280;29632;49.168;9.848;2022-09-13T08:18:50;96411.59;;;23.82;43.00
40838;BME280;29632;49.168;9.848;2022-09-13T08:21:17;96417.34;;;23.91;42.93
40838;BME280;29632;49.168;9.848;2022-09-13T08:23:43;96417.53;;;24.01;42.91
40838;BME280;29632;49.168;9.848;2022-09-13T08:26:10;96414.00;;;24.12;42.47
40838;BME280;29632;49.168;9.848;2022-09-13T08:28:38;96401.91;;;24.22;42.57
40838;BME280;29632;49.168;9.848;2022-09-13T08:31:11;96410.31;;;24.30;42.42
40838;BME280;29632;49.168;9.848;2022-09-13T08:33:38;96418.66;;;24.34;42.68
40838;BME280;29632;49.168;9.848;2022-09-13T08:36:04;96421.38;;;24.39;42.53
40838;BME280;29632;49.168;9.848;2022-09-13T08:38:30;96422.28;;;24.45;42.49
40838;BME280;29632;49.168;9.848;2022-09-13T08:41:04;96431.72;;;24.53;42.35
40838;BME280;29632;49.168;9.848;2022-09-13T08:44:17;96433.47;;;24.59;42.30
40838;BME280;29632;49.168;9.848;2022-09-13T08:46:48;96432.78;;;24.68;42.19
40838;BME280;29632;49.168;9.848;2022-09-13T08:49:30;96427.31;;;24.75;42.29
40838;BME280;29632;49.168;9.848;2022-09-13T08:52:32;96427.22;;;24.87;42.19
40838;BME280;29632;49.168;9.848;2022-09-13T08:55:18;96426.06;;;25.00;42.39
40838;BME280;29632;49.168;9.848;2022-09-13T08:58:18;96423.81;;;25.09;42.18
40838;BME280;29632;49.168;9.848;2022-09-13T09:01:07;96411.41;;;25.19;41.78
40838;BME280;29632;49.168;9.848;2022-09-13T09:04:05;96419.97;;;25.21;41.91
40838;BME280;29632;49.168;9.848;2022-09-13T09:06:36;96415.13;;;25.35;41.66
40838;BME280;29632;49.168;9.848;2022-09-13T09:09:07;96418.75;;;25.46;41.65
40838;BME280;29632;49.168;9.848;2022-09-13T09:11:51;96411.13;;;25.55;41.76
40838;BME280;29632;49.168;9.848;2022-09-13T09:14:40;96417.63;;;25.64;41.56
40838;BME280;29632;49.168;9.848;2022-09-13T09:17:17;96417.13;;;25.67;41.66
40838;BME280;29632;49.168;9.848;2022-09-13T09:19:49;96417.56;;;25.81;41.53
40838;BME280;29632;49.168;9.848;2022-09-13T09:22:20;96408.38;;;25.94;41.14
40838;BME280;29632;49.168;9.848;2022-09-13T09:24:53;96403.16;;;26.04;41.28
40838;BME280;29632;49.168;9.848;2022-09-13T09:27:20;96408.63;;;26.19;41.22
40838;BME280;29632;49.168;9.848;2022-09-13T09:29:51;96405.28;;;26.34;40.88
40838;BME280;29632;49.168;9.848;2022-09-13T09:32:54;96413.69;;;26.48;40.80
40838;BME280;29632;49.168;9.848;2022-09-13T09:35:50;96405.50;;;26.60;40.71
40838;BME280;29632;49.168;9.848;2022-09-13T09:38:39;96412.00;;;26.69;40.37
40838;BME280;29632;49.168;9.848;2022-09-13T09:44:11;96408.38;;;26.81;40.23
40838;BME280;29632;49.168;9.848;2022-09-13T09:46:40;96397.47;;;26.92;40.35
40838;BME280;29632;49.168;9.848;2022-09-13T09:49:38;96399.91;;;26.99;40.09
40838;BME280;29632;49.168;9.848;2022-09-13T09:55:26;96383.16;;;27.09;39.63
40838;BME280;29632;49.168;9.848;2022-09-13T09:58:11;96390.09;;;27.10;39.13
40838;BME280;29632;49.168;9.848;2022-09-13T10:00:51;96381.84;;;27.17;39.20
40838;BME280;29632;49.168;9.848;2022-09-13T10:03:27;96380.00;;;27.22;39.37
40838;BME280;29632;49.168;9.848;2022-09-13T10:06:14;96380.03;;;27.27;39.41
40838;BME280;29632;49.168;9.848;2022-09-13T10:11:56;96370.50;;;27.42;39.22
40838;BME280;29632;49.168;9.848;2022-09-13T10:17:15;96354.78;;;27.56;38.66
40838;BME280;29632;49.168;9.848;2022-09-13T10:19:59;96350.75;;;27.58;38.58
40838;BME280;29632;49.168;9.848;2022-09-13T10:22:31;96352.09;;;27.61;38.59
40838;BME280;29632;49.168;9.848;2022-09-13T10:25:24;96354.22;;;27.59;38.95
40838;BME280;29632;49.168;9.848;2022-09-13T10:27:57;96363.88;;;27.60;39.01
40838;BME280;29632;49.168;9.848;2022-09-13T10:30:41;96377.78;;;27.62;38.93
40838;BME280;29632;49.168;9.848;2022-09-13T10:36:23;96369.47;;;27.58;38.48
40838;BME280;29632;49.168;9.848;2022-09-13T10:39:02;96371.09;;;27.59;38.67
40838;BME280;29632;49.168;9.848;2022-09-13T10:41:32;96368.44;;;27.64;38.71
40838;BME280;29632;49.168;9.848;2022-09-13T10:44:02;96373.00;;;27.69;38.11
40838;BME280;29632;49.168;9.848;2022-09-13T10:46:32;96379.97;;;27.75;37.41
40838;BME280;29632;49.168;9.848;2022-09-13T10:49:00;96384.25;;;27.81;37.32
40838;BME280;29632;49.168;9.848;2022-09-13T10:54:23;96380.84;;;27.91;36.89
40838;BME280;29632;49.168;9.848;2022-09-13T10:56:50;96378.72;;;28.03;36.79
40838;BME280;29632;49.168;9.848;2022-09-13T10:59:27;96384.88;;;28.09;36.68
40838;BME280;29632;49.168;9.848;2022-09-13T11:02:31;96391.03;;;28.20;37.19
40838;BME280;29632;49.168;9.848;2022-09-13T11:05:30;96386.22;;;28.32;36.64
40838;BME280;29632;49.168;9.848;2022-09-13T11:08:41;96386.50;;;28.46;36.63
40838;BME280;29632;49.168;9.848;2022-09-13T11:14:56;96382.78;;;28.73;35.60
40838;BME280;29632;49.168;9.848;2022-09-13T11:20:45;96379.25;;;28.93;35.57
40838;BME280;29632;49.168;9.848;2022-09-13T11:29:48;96380.81;;;29.09;34.80
40838;BME280;29632;49.168;9.848;2022-09-13T11:37:28;96382.97;;;29.23;33.96
40838;BME280;29632;49.168;9.848;2022-09-13T11:40:38;96392.59;;;29.29;34.19
40838;BME280;29632;49.168;9.848;2022-09-13T11:57:57;96383.38;;;29.55;33.63
40838;BME280;29632;49.168;9.848;2022-09-13T12:00:41;96373.41;;;29.61;32.90
40838;BME280;29632;49.168;9.848;2022-09-13T12:06:52;96372.31;;;29.78;32.61
40838;BME280;29632;49.168;9.848;2022-09-13T12:09:07;96358.25;;;29.91;33.13
40838;BME280;29632;49.168;9.848;2022-09-13T12:11:46;96352.06;;;29.96;32.37
40838;BME280;29632;49.168;9.848;2022-09-13T12:14:18;96349.38;;;29.96;31.75
40838;BME280;29632;49.168;9.848;2022-09-13T12:16:53;96347.72;;;30.00;31.93
40838;BME280;29632;49.168;9.848;2022-09-13T12:19:47;96354.13;;;30.04;31.55
40838;BME280;29632;49.168;9.848;2022-09-13T12:22:15;96350.06;;;30.11;31.39
40838;BME280;29632;49.168;9.848;2022-09-13T12:24:47;96347.88;;;30.19;31.11
40838;BME280;29632;49.168;9.848;2022-09-13T12:30:19;96342.66;;;30.33;31.33
40838;BME280;29632;49.168;9.848;2022-09-13T12:32:47;96342.59;;;30.43;31.40
40838;BME280;29632;49.168;9.848;2022-09-13T12:35:35;96345.00;;;30.44;30.82
40838;BME280;29632;49.168;9.848;2022-09-13T12:41:07;96334.50;;;30.48;31.00
40838;BME280;29632;49.168;9.848;2022-09-13T12:52:50;96340.72;;;30.43;30.98
40838;BME280;29632;49.168;9.848;2022-09-13T13:01:24;96337.28;;;30.38;31.68
40838;BME280;29632;49.168;9.848;2022-09-13T13:03:59;96337.00;;;30.39;31.33
40838;BME280;29632;49.168;9.848;2022-09-13T13:06:38;96328.66;;;30.41;31.71
40838;BME280;29632;49.168;9.848;2022-09-13T13:09:41;96324.91;;;30.37;31.76
40838;BME280;29632;49.168;9.848;2022-09-13T13:14:55;96322.47;;;30.40;31.36
40838;BME280;29632;49.168;9.848;2022-09-13T13:21:20;96317.91;;;30.41;31.67
40838;BME280;29632;49.168;9.848;2022-09-13T13:23:35;96307.97;;;30.41;31.54
40838;BME280;29632;49.168;9.848;2022-09-13T13:34:01;96298.72;;;30.53;32.40
40838;BME280;29632;49.168;9.848;2022-09-13T13:38:55;96280.44;;;30.55;32.09
40838;BME280;29632;49.168;9.848;2022-09-13T13:46:53;96277.44;;;30.56;31.86
40838;BME280;29632;49.168;9.848;2022-09-13T14:11:33;96266.47;;;30.53;33.82
40838;BME280;29632;49.168;9.848;2022-09-13T14:20:16;96275.97;;;30.45;33.76
40838;BME280;29632;49.168;9.848;2022-09-13T14:22:45;96262.25;;;30.46;33.43
40838;BME280;29632;49.168;9.848;2022-09-13T14:25:31;96256.66;;;30.43;33.32
40838;BME280;29632;49.168;9.848;2022-09-13T14:27:58;96249.09;;;30.45;33.60
40838;BME280;29632;49.168;9.848;2022-09-13T14:30:34;96240.53;;;30.43;33.41
40838;BME280;29632;49.168;9.848;2022-09-13T14:33:01;96234.06;;;30.44;33.42
40838;BME280;29632;49.168;9.848;2022-09-13T14:35:36;96240.03;;;30.41;33.26
40838;BME280;29632;49.168;9.848;2022-09-13T14:38:22;96241.38;;;30.38;33.28
40838;BME280;29632;49.168;9.848;2022-09-13T14:40:52;96246.47;;;30.40;33.26
40838;BME280;29632;49.168;9.848;2022-09-13T14:43:27;96243.50;;;30.41;33.27
40838;BME280;29632;49.168;9.848;2022-09-13T14:46:11;96244.53;;;30.45;33.65
40838;BME280;29632;49.168;9.848;2022-09-13T14:49:00;96246.66;;;30.48;33.69
40838;BME280;29632;49.168;9.848;2022-09-13T14:51:29;96255.72;;;30.53;33.52
40838;BME280;29632;49.168;9.848;2022-09-13T14:54:05;96254.66;;;30.54;33.61
40838;BME280;29632;49.168;9.848;2022-09-13T14:56:55;96256.25;;;30.55;33.62
40838;BME280;29632;49.168;9.848;2022-09-13T14:59:46;96250.31;;;30.58;33.30
40838;BME280;29632;49.168;9.848;2022-09-13T15:02:24;96249.97;;;30.64;33.62
40838;BME280;29632;49.168;9.848;2022-09-13T15:04:56;96250.19;;;30.68;33.64
40838;BME280;29632;49.168;9.848;2022-09-13T15:07:31;96253.09;;;30.72;33.70
40838;BME280;29632;49.168;9.848;2022-09-13T15:13:22;96245.81;;;30.77;33.58
40838;BME280;29632;49.168;9.848;2022-09-13T15:21:05;96231.31;;;30.73;33.75
40838;BME280;29632;49.168;9.848;2022-09-13T15:23:49;96227.34;;;30.71;33.69
40838;BME280;29632;49.168;9.848;2022-09-13T15:26:23;96229.75;;;30.72;33.62
40838;BME280;29632;49.168;9.848;2022-09-13T15:31:31;96227.63;;;30.69;34.06
40838;BME280;29632;49.168;9.848;2022-09-13T15:36:43;96223.81;;;30.70;34.01
40838;BME280;29632;49.168;9.848;2022-09-13T15:39:16;96221.44;;;30.68;33.79
40838;BME280;29632;49.168;9.848;2022-09-13T15:41:56;96220.91;;;30.66;34.17
40838;BME280;29632;49.168;9.848;2022-09-13T15:44:26;96225.22;;;30.67;34.39
40838;BME280;29632;49.168;9.848;2022-09-13T15:47:01;96224.19;;;30.63;34.78
40838;BME280;29632;49.168;9.848;2022-09-13T15:49:30;96214.53;;;30.62;34.75
40838;BME280;29632;49.168;9.848;2022-09-13T15:51:59;96208.66;;;30.60;35.01
40838;BME280;29632;49.168;9.848;2022-09-13T15:54:37;96206.00;;;30.55;35.15
40838;BME280;29632;49.168;9.848;2022-09-13T15:57:08;96194.47;;;30.55;35.31
40838;BME280;29632;49.168;9.848;2022-09-13T15:59:36;96188.56;;;30.53;35.24
40838;BME280;29632;49.168;9.848;2022-09-13T16:04:50;96189.22;;;30.44;36.15
40838;BME280;29632;49.168;9.848;2022-09-13T16:07:17;96185.19;;;30.42;35.95
40838;BME280;29632;49.168;9.848;2022-09-13T16:09:44;96191.97;;;30.39;36.48
40838;BME280;29632;49.168;9.848;2022-09-13T16:12:09;96179.38;;;30.35;36.75
40838;BME280;29632;49.168;9.848;2022-09-13T16:14:35;96180.72;;;30.32;36.97
40838;BME280;29632;49.168;9.848;2022-09-13T16:17:38;96181.56;;;30.27;37.24
40838;BME280;29632;49.168;9.848;2022-09-13T16:19:57;96174.91;;;30.25;37.59
40838;BME280;29632;49.168;9.848;2022-09-13T16:22:23;96175.97;;;30.24;37.78
40838;BME280;29632;49.168;9.848;2022-09-13T16:24:49;96174.63;;;30.21;37.51
40838;BME280;29632;49.168;9.848;2022-09-13T16:27:16;96161.28;;;30.16;37.77
40838;BME280;29632;49.168;9.848;2022-09-13T16:29:42;96162.13;;;30.11;37.20
40838;BME280;29632;49.168;9.848;2022-09-13T16:32:08;96161.13;;;30.07;37.66
40838;BME280;29632;49.168;9.848;2022-09-13T16:34:34;96162.75;;;30.03;37.45
40838;BME280;29632;49.168;9.848;2022-09-13T16:37:00;96152.06;;;29.98;37.72
40838;BME280;29632;49.168;9.848;2022-09-13T16:39:25;96152.09;;;29.93;38.18
40838;BME280;29632;49.168;9.848;2022-09-13T16:41:51;96150.81;;;29.90;37.94
40838;BME280;29632;49.168;9.848;2022-09-13T16:44:17;96158.63;;;29.87;37.70
40838;BME280;29632;49.168;9.848;2022-09-13T16:46:43;96151.41;;;29.82;38.12
40838;BME280;29632;49.168;9.848;2022-09-13T16:49:09;96143.13;;;29.79;38.35
40838;BME280;29632;49.168;9.848;2022-09-13T16:51:36;96141.25;;;29.74;38.31
40838;BME280;29632;49.168;9.848;2022-09-13T16:54:03;96134.06;;;29.69;38.29
40838;BME280;29632;49.168;9.848;2022-09-13T16:56:29;96147.25;;;29.66;38.25